Ashland, Alabama
Current Conditions -  °F | °C
As of 9:53 PM on Thursday 27 Nov 2014 (Local Time) from KANB Reporting Station
Clear Clear  
Wind Chill:   Ceiling: Unl
Heat Index:   Visibility: 10mi
Dew Point: -3°   Wind: 0mph
Humidity: 62%   Direction: NA
Pressure: 30.42"   Gusts: NA
Location:  33.27°N, 85.84°W
Report Text: KANB 280353Z AUTO 00000KT 10SM CLR 03/M03 A3042 RMK AO2 SLP310 T00331033
Loading
Personal Weather Stations






























Interactive Weather Map New forecast layout! Learn more

10-Day Weather Forecast

Advertisements
Track Severe Weather on mobile